Forside
METAR-TAF:

METAR-TAF

Lufthavne :

Chicago Rockford International Airport

Rockford, Illinois, USA

Breddekreds: 42-11-34N, længdekreds: 089-05-36W, højde: 224 m

Aktuelle vejr

Denne rapport blev lavet for 49 minutter siden, kl. 02:54 UTC
Vind 11 kt fra vestnordvest
Temperatur -5°C
Fugtighed 63%
Tryk 1019 hPa
Sigt: 16.1 km
skyfri

METAR: KRFD 280254Z 30011KT 10SM CLR M05/M11 A3008 RMK AO2 SLP197 T10501106 51005

Tid: 21:43 (03:43 UTC)

Vejrudsigter

Denne rapport blev lavet for 4 timer og 23 minutter siden, kl. 23:20 UTC
Foreløbig gælder fra 28 på 00 UTC til 28 på 24 UTC
Vind 13 kt fra vestnordvest
Sigt: 10 km
Nogle få skyer i en højde af 20000 ft
Fra 28 på 1500 UTC
Vind 10 kt fra vestnordvest med vindstød på up til 15 kt
Sigt: 10 km
Spredte skyer i en højde af 4500 ft

TAF: KRFD 272320Z 2800/2824 29013KT P6SM FEW200 FM281500 29010G15KT P6SM SCT045

Vejrobservationer og prognoser fra mere end 4000 lufthavne (METAR og TAF).

De gule og røde prikker repræsenterer de meteorologiske stationer.

Flyt musen over at se navnet på stationen.

Så klik over at se vejr observationer og prognoser.

At skifte det kort: Klik på de grønne knapper med et sort kors for at zoome ind; på den grønne knap med en bindestreg for at zoome ud; eller på de grønne pile for tilstødende kort.


METAR-TAF: